sensor_id;sensor_type;location;lat;lon;timestamp;temperature;humidity
43862;DHT22;29510;52.140;5.034;2022-12-18T00:07:42;-2.60;99.90
43862;DHT22;29510;52.140;5.034;2022-12-18T00:17:43;-2.60;99.90
43862;DHT22;29510;52.140;5.034;2022-12-18T00:27:44;-2.60;99.90
43862;DHT22;29510;52.140;5.034;2022-12-18T00:37:45;-2.70;99.90
43862;DHT22;29510;52.140;5.034;2022-12-18T00:47:46;-2.60;99.90
43862;DHT22;29510;52.140;5.034;2022-12-18T00:57:47;-2.60;99.90
43862;DHT22;29510;52.140;5.034;2022-12-18T01:07:48;-2.50;99.90
43862;DHT22;29510;52.140;5.034;2022-12-18T01:17:52;-2.80;99.90
43862;DHT22;29510;52.140;5.034;2022-12-18T01:27:54;-3.00;99.90
43862;DHT22;29510;52.140;5.034;2022-12-18T01:37:55;-3.00;99.90
43862;DHT22;29510;52.140;5.034;2022-12-18T01:48:00;-2.90;99.90
43862;DHT22;29510;52.140;5.034;2022-12-18T01:58:02;-3.00;99.90
43862;DHT22;29510;52.140;5.034;2022-12-18T02:08:11;-2.90;99.90
43862;DHT22;29510;52.140;5.034;2022-12-18T02:18:44;-2.90;99.90
43862;DHT22;29510;52.140;5.034;2022-12-18T02:29:15;-3.00;99.90
43862;DHT22;29510;52.140;5.034;2022-12-18T02:39:17;-3.20;99.90
43862;DHT22;29510;52.140;5.034;2022-12-18T02:49:44;-3.30;99.90
43862;DHT22;29510;52.140;5.034;2022-12-18T02:59:53;-3.00;99.90
43862;DHT22;29510;52.140;5.034;2022-12-18T03:09:58;-3.20;99.90
43862;DHT22;29510;52.140;5.034;2022-12-18T03:20:14;-3.20;99.90
43862;DHT22;29510;52.140;5.034;2022-12-18T03:51:41;-3.00;99.90
43862;DHT22;29510;52.140;5.034;2022-12-18T04:01:49;-2.90;99.90
43862;DHT22;29510;52.140;5.034;2022-12-18T04:11:51;-3.10;99.90
43862;DHT22;29510;52.140;5.034;2022-12-18T04:21:52;-3.10;99.90
43862;DHT22;29510;52.140;5.034;2022-12-18T04:31:54;-3.00;99.90
43862;DHT22;29510;52.140;5.034;2022-12-18T04:41:55;-3.10;99.90
43862;DHT22;29510;52.140;5.034;2022-12-18T04:51:56;-3.20;99.90
43862;DHT22;29510;52.140;5.034;2022-12-18T05:01:57;-3.30;99.90
43862;DHT22;29510;52.140;5.034;2022-12-18T05:11:58;-3.20;99.90
43862;DHT22;29510;52.140;5.034;2022-12-18T05:21:59;-3.20;99.90
43862;DHT22;29510;52.140;5.034;2022-12-18T05:32:00;-3.30;99.90
43862;DHT22;29510;52.140;5.034;2022-12-18T05:42:01;-3.60;99.90
43862;DHT22;29510;52.140;5.034;2022-12-18T05:52:03;-3.40;99.90
43862;DHT22;29510;52.140;5.034;2022-12-18T06:02:04;-3.50;99.90
43862;DHT22;29510;52.140;5.034;2022-12-18T06:12:05;-3.60;99.90
43862;DHT22;29510;52.140;5.034;2022-12-18T06:22:06;-3.60;99.90
43862;DHT22;29510;52.140;5.034;2022-12-18T06:32:07;-3.70;99.90
43862;DHT22;29510;52.140;5.034;2022-12-18T06:42:08;-3.70;99.90
43862;DHT22;29510;52.140;5.034;2022-12-18T06:52:09;-3.60;99.90
43862;DHT22;29510;52.140;5.034;2022-12-18T07:02:12;-3.80;99.90
43862;DHT22;29510;52.140;5.034;2022-12-18T07:12:13;-3.90;99.90
43862;DHT22;29510;52.140;5.034;2022-12-18T07:22:14;-3.70;99.90
43862;DHT22;29510;52.140;5.034;2022-12-18T07:32:15;-3.70;99.90
43862;DHT22;29510;52.140;5.034;2022-12-18T07:42:16;-3.60;99.90
43862;DHT22;29510;52.140;5.034;2022-12-18T07:52:32;-3.50;99.90
43862;DHT22;29510;52.140;5.034;2022-12-18T08:02:33;-3.40;99.90
43862;DHT22;29510;52.140;5.034;2022-12-18T08:12:34;-3.40;99.90
43862;DHT22;29510;52.140;5.034;2022-12-18T08:22:35;-3.40;99.90
43862;DHT22;29510;52.140;5.034;2022-12-18T08:32:37;-3.30;99.90
43862;DHT22;29510;52.140;5.034;2022-12-18T08:42:38;-3.30;99.90
43862;DHT22;29510;52.140;5.034;2022-12-18T08:52:58;-3.20;99.90
43862;DHT22;29510;52.140;5.034;2022-12-18T09:02:59;-3.10;99.90
43862;DHT22;29510;52.140;5.034;2022-12-18T09:13:00;-2.90;99.90
43862;DHT22;29510;52.140;5.034;2022-12-18T09:23:02;-2.80;99.90
43862;DHT22;29510;52.140;5.034;2022-12-18T09:33:03;-2.70;99.90
43862;DHT22;29510;52.140;5.034;2022-12-18T09:43:05;-2.60;99.90
43862;DHT22;29510;52.140;5.034;2022-12-18T09:53:14;-2.50;99.90
43862;DHT22;29510;52.140;5.034;2022-12-18T10:03:16;-2.50;99.90
43862;DHT22;29510;52.140;5.034;2022-12-18T10:13:38;-2.30;99.90
43862;DHT22;29510;52.140;5.034;2022-12-18T10:34:13;-2.00;99.90
43862;DHT22;29510;52.140;5.034;2022-12-18T10:44:22;-1.90;99.90
43862;DHT22;29510;52.140;5.034;2022-12-18T10:54:23;-1.80;99.90
43862;DHT22;29510;52.140;5.034;2022-12-18T11:04:31;-1.70;99.90
43862;DHT22;29510;52.140;5.034;2022-12-18T11:14:35;-1.70;99.90
43862;DHT22;29510;52.140;5.034;2022-12-18T11:24:43;-1.50;99.90
43862;DHT22;29510;52.140;5.034;2022-12-18T11:34:48;-1.40;99.90
43862;DHT22;29510;52.140;5.034;2022-12-18T11:55:37;-1.20;99.90
43862;DHT22;29510;52.140;5.034;2022-12-18T12:26:49;-0.90;99.90
43862;DHT22;29510;52.140;5.034;2022-12-18T12:47:13;-0.70;99.90
43862;DHT22;29510;52.140;5.034;2022-12-18T12:57:21;-0.60;99.90
43862;DHT22;29510;52.140;5.034;2022-12-18T13:07:39;-0.60;99.90
43862;DHT22;29510;52.140;5.034;2022-12-18T13:17:41;-0.50;99.90
43862;DHT22;29510;52.140;5.034;2022-12-18T13:27:53;-0.40;99.70
43862;DHT22;29510;52.140;5.034;2022-12-18T13:37:56;-0.30;99.00
43862;DHT22;29510;52.140;5.034;2022-12-18T13:47:58;-0.30;99.80
43862;DHT22;29510;52.140;5.034;2022-12-18T13:58:05;-0.30;99.90
43862;DHT22;29510;52.140;5.034;2022-12-18T14:08:14;-0.20;99.80
43862;DHT22;29510;52.140;5.034;2022-12-18T14:18:37;-0.20;99.00
43862;DHT22;29510;52.140;5.034;2022-12-18T14:28:43;-0.10;98.60
43862;DHT22;29510;52.140;5.034;2022-12-18T14:38:50;-0.10;98.40
43862;DHT22;29510;52.140;5.034;2022-12-18T14:48:52;0.00;97.70
43862;DHT22;29510;52.140;5.034;2022-12-18T14:58:56;0.00;97.60
43862;DHT22;29510;52.140;5.034;2022-12-18T15:09:00;0.10;97.70
43862;DHT22;29510;52.140;5.034;2022-12-18T15:19:02;0.10;97.00
43862;DHT22;29510;52.140;5.034;2022-12-18T15:29:03;0.10;97.20
43862;DHT22;29510;52.140;5.034;2022-12-18T15:39:04;0.20;97.40
43862;DHT22;29510;52.140;5.034;2022-12-18T15:49:05;0.10;97.50
43862;DHT22;29510;52.140;5.034;2022-12-18T15:59:11;0.20;96.90
43862;DHT22;29510;52.140;5.034;2022-12-18T16:09:13;0.20;97.10
43862;DHT22;29510;52.140;5.034;2022-12-18T16:19:14;0.20;96.70
43862;DHT22;29510;52.140;5.034;2022-12-18T16:29:15;0.30;96.60
43862;DHT22;29510;52.140;5.034;2022-12-18T16:39:17;0.30;96.90
43862;DHT22;29510;52.140;5.034;2022-12-18T16:49:18;0.30;96.60
43862;DHT22;29510;52.140;5.034;2022-12-18T16:59:19;0.30;96.70
43862;DHT22;29510;52.140;5.034;2022-12-18T17:09:21;0.30;96.50
43862;DHT22;29510;52.140;5.034;2022-12-18T17:19:26;0.30;96.90
43862;DHT22;29510;52.140;5.034;2022-12-18T17:29:27;0.40;96.60
43862;DHT22;29510;52.140;5.034;2022-12-18T17:39:28;0.50;96.70
43862;DHT22;29510;52.140;5.034;2022-12-18T17:49:30;0.50;96.80
43862;DHT22;29510;52.140;5.034;2022-12-18T17:59:31;0.60;96.90
43862;DHT22;29510;52.140;5.034;2022-12-18T18:09:32;0.60;96.40
43862;DHT22;29510;52.140;5.034;2022-12-18T18:19:33;0.60;96.50
43862;DHT22;29510;52.140;5.034;2022-12-18T18:29:34;0.70;96.50
43862;DHT22;29510;52.140;5.034;2022-12-18T18:39:36;0.80;95.60
43862;DHT22;29510;52.140;5.034;2022-12-18T18:49:37;0.80;96.00
43862;DHT22;29510;52.140;5.034;2022-12-18T18:59:38;0.90;95.60
43862;DHT22;29510;52.140;5.034;2022-12-18T19:09:39;1.00;94.90
43862;DHT22;29510;52.140;5.034;2022-12-18T19:19:41;1.10;94.60
43862;DHT22;29510;52.140;5.034;2022-12-18T19:29:42;1.10;97.00
43862;DHT22;29510;52.140;5.034;2022-12-18T19:39:43;0.90;99.90
43862;DHT22;29510;52.140;5.034;2022-12-18T19:49:44;0.80;99.90
43862;DHT22;29510;52.140;5.034;2022-12-18T19:59:45;0.70;99.90
43862;DHT22;29510;52.140;5.034;2022-12-18T20:09:46;0.70;99.90
43862;DHT22;29510;52.140;5.034;2022-12-18T20:19:47;0.70;99.90
43862;DHT22;29510;52.140;5.034;2022-12-18T20:29:48;0.70;99.90
43862;DHT22;29510;52.140;5.034;2022-12-18T20:39:49;0.70;99.90
43862;DHT22;29510;52.140;5.034;2022-12-18T20:49:51;0.70;99.90
43862;DHT22;29510;52.140;5.034;2022-12-18T20:59:52;0.70;99.90
43862;DHT22;29510;52.140;5.034;2022-12-18T21:09:53;0.70;99.90
43862;DHT22;29510;52.140;5.034;2022-12-18T21:19:54;0.70;99.90
43862;DHT22;29510;52.140;5.034;2022-12-18T21:29:55;0.80;99.90
43862;DHT22;29510;52.140;5.034;2022-12-18T21:39:56;0.80;99.90
43862;DHT22;29510;52.140;5.034;2022-12-18T21:49:58;0.80;99.90
43862;DHT22;29510;52.140;5.034;2022-12-18T21:59:59;0.90;99.90
43862;DHT22;29510;52.140;5.034;2022-12-18T22:10:00;1.00;99.90
43862;DHT22;29510;52.140;5.034;2022-12-18T22:20:01;1.10;99.90
43862;DHT22;29510;52.140;5.034;2022-12-18T22:30:02;1.10;99.90
43862;DHT22;29510;52.140;5.034;2022-12-18T22:40:04;1.10;99.90
43862;DHT22;29510;52.140;5.034;2022-12-18T22:50:06;1.10;99.90
43862;DHT22;29510;52.140;5.034;2022-12-18T23:00:07;1.20;99.90
43862;DHT22;29510;52.140;5.034;2022-12-18T23:10:09;1.30;99.90
43862;DHT22;29510;52.140;5.034;2022-12-18T23:20:10;1.40;99.90
43862;DHT22;29510;52.140;5.034;2022-12-18T23:30:11;1.40;99.90
43862;DHT22;29510;52.140;5.034;2022-12-18T23:40:13;1.40;99.90
43862;DHT22;29510;52.140;5.034;2022-12-18T23:50:14;1.50;99.90
